createdAt,value
2018-09-22T00:00:19.066Z,99.90
2018-09-22T00:02:48.269Z,99.90
2018-09-22T00:05:17.221Z,99.90
2018-09-22T00:07:46.302Z,99.90
2018-09-22T00:10:15.081Z,99.90
2018-09-22T00:12:44.933Z,99.90
2018-09-22T00:15:13.869Z,99.90
2018-09-22T00:17:42.620Z,99.90
2018-09-22T00:20:11.407Z,99.90
2018-09-22T00:22:40.528Z,99.90
2018-09-22T00:25:09.367Z,99.90
2018-09-22T00:27:38.167Z,99.90
2018-09-22T00:30:07.125Z,99.90
2018-09-22T00:32:36.225Z,99.90
2018-09-22T00:35:05.235Z,99.90
2018-09-22T00:37:34.331Z,99.90
2018-09-22T00:40:03.359Z,99.90
2018-09-22T00:42:32.457Z,99.90
2018-09-22T00:45:01.685Z,99.90
2018-09-22T00:47:30.617Z,99.90
2018-09-22T00:49:59.511Z,99.90
2018-09-22T00:52:28.666Z,99.90
2018-09-22T00:54:57.565Z,99.90
2018-09-22T00:57:26.469Z,99.90
2018-09-22T00:59:55.420Z,99.90
2018-09-22T01:02:24.190Z,99.90
2018-09-22T01:04:53.249Z,99.90
2018-09-22T01:07:22.478Z,99.90
2018-09-22T01:09:51.895Z,99.90
2018-09-22T01:12:30.677Z,99.90
2018-09-22T01:15:04.420Z,99.90
2018-09-22T01:17:38.917Z,99.90
2018-09-22T01:20:12.881Z,99.90
2018-09-22T01:22:50.299Z,99.90
2018-09-22T01:25:24.401Z,99.90
2018-09-22T01:27:57.928Z,99.90
2018-09-22T01:30:34.426Z,99.90
2018-09-22T01:33:07.755Z,99.90
2018-09-22T01:35:44.721Z,99.90
2018-09-22T01:38:18.789Z,99.70
2018-09-22T01:40:55.118Z,99.60
2018-09-22T01:43:30.880Z,99.60
2018-09-22T01:46:05.261Z,99.50
2018-09-22T01:48:41.105Z,99.30
2018-09-22T01:51:16.375Z,99.30
2018-09-22T01:53:50.994Z,99.30
2018-09-22T01:56:26.356Z,99.20
2018-09-22T01:58:59.768Z,99.00
2018-09-22T02:01:34.372Z,99.00
2018-09-22T02:04:11.236Z,99.10
2018-09-22T02:06:44.700Z,98.90
2018-09-22T02:09:16.928Z,98.70
2018-09-22T02:11:49.741Z,98.80
2018-09-22T02:14:22.703Z,98.80
2018-09-22T02:16:55.166Z,98.50
2018-09-22T02:19:27.483Z,98.30
2018-09-22T02:21:59.832Z,98.30
2018-09-22T02:24:31.680Z,98.20
2018-09-22T02:27:05.778Z,98.20
2018-09-22T02:29:45.221Z,97.90
2018-09-22T02:32:20.566Z,97.90
2018-09-22T02:34:54.596Z,97.80
2018-09-22T02:37:33.039Z,97.90
2018-09-22T02:40:09.099Z,97.80
2018-09-22T02:42:42.830Z,97.70
2018-09-22T02:45:17.711Z,97.60
2018-09-22T02:47:51.057Z,97.80
2018-09-22T02:50:25.947Z,97.70
2018-09-22T02:53:01.149Z,97.60
2018-09-22T02:55:34.437Z,97.50
2018-09-22T02:58:07.990Z,97.50
2018-09-22T03:00:41.653Z,97.40
2018-09-22T03:03:15.415Z,97.40
2018-09-22T03:05:49.059Z,97.40
2018-09-22T03:08:23.472Z,97.30
2018-09-22T03:10:57.836Z,97.60
2018-09-22T03:13:31.300Z,97.40
2018-09-22T03:16:05.972Z,97.40
2018-09-22T03:18:40.527Z,97.30
2018-09-22T03:21:14.849Z,97.30
2018-09-22T03:23:49.371Z,97.70
2018-09-22T03:26:21.918Z,97.30
2018-09-22T03:28:56.251Z,97.30
2018-09-22T03:31:28.993Z,97.30
2018-09-22T03:33:57.925Z,97.30
2018-09-22T03:36:26.799Z,97.40
2018-09-22T03:38:55.729Z,97.50
2018-09-22T03:41:24.888Z,97.50
2018-09-22T03:43:53.932Z,97.40
2018-09-22T03:46:22.828Z,97.30
2018-09-22T03:48:51.598Z,97.20
2018-09-22T03:51:20.405Z,97.20
2018-09-22T03:53:49.530Z,97.20
2018-09-22T03:56:18.782Z,97.20
2018-09-22T03:58:47.769Z,97.30
2018-09-22T04:01:16.915Z,97.40
2018-09-22T04:03:45.601Z,97.40
2018-09-22T04:06:14.368Z,97.40
2018-09-22T04:08:43.288Z,97.40
2018-09-22T04:11:12.186Z,97.70
2018-09-22T04:13:41.147Z,97.80
2018-09-22T04:16:09.884Z,97.80
2018-09-22T04:18:38.753Z,97.70
2018-09-22T04:21:07.743Z,97.80
2018-09-22T04:23:36.582Z,97.80
2018-09-22T04:26:05.439Z,97.70
2018-09-22T04:28:34.615Z,97.70
2018-09-22T04:31:03.539Z,97.60
2018-09-22T04:33:32.483Z,97.60
2018-09-22T04:36:01.321Z,97.50
2018-09-22T04:38:30.632Z,97.60
2018-09-22T04:40:59.650Z,97.60
2018-09-22T04:43:28.808Z,97.70
2018-09-22T04:45:57.642Z,97.90
2018-09-22T04:48:26.395Z,98.00
2018-09-22T04:50:55.407Z,98.10
2018-09-22T04:53:24.328Z,98.10
2018-09-22T04:55:53.293Z,98.30
2018-09-22T04:58:22.496Z,98.40
2018-09-22T05:00:51.301Z,98.50
2018-09-22T05:03:20.309Z,98.60
2018-09-22T05:05:49.092Z,98.70
2018-09-22T05:08:17.999Z,98.60
2018-09-22T05:10:46.842Z,98.70
2018-09-22T05:13:15.704Z,98.70
2018-09-22T05:15:44.547Z,98.70
2018-09-22T05:18:13.344Z,98.70
2018-09-22T05:20:42.145Z,98.70
2018-09-22T05:23:10.940Z,98.60
2018-09-22T05:25:39.690Z,98.60
2018-09-22T05:28:08.490Z,98.70
2018-09-22T05:30:37.227Z,98.50
2018-09-22T05:33:06.065Z,98.40
2018-09-22T05:35:34.769Z,98.40
2018-09-22T05:38:03.945Z,98.30
2018-09-22T05:40:32.765Z,98.60
2018-09-22T05:43:01.554Z,98.30
2018-09-22T05:45:30.425Z,98.50
2018-09-22T05:47:59.612Z,98.60
2018-09-22T05:50:28.460Z,98.20
2018-09-22T05:52:57.234Z,98.30
2018-09-22T05:55:26.419Z,98.20
2018-09-22T05:57:55.152Z,98.20
2018-09-22T06:00:24.171Z,98.10
2018-09-22T06:02:53.185Z,98.00
2018-09-22T06:05:22.034Z,98.00
2018-09-22T06:07:50.933Z,97.90
2018-09-22T06:10:19.870Z,97.90
2018-09-22T06:12:48.977Z,97.80
2018-09-22T06:15:17.899Z,97.70
2018-09-22T06:17:46.804Z,97.60
2018-09-22T06:20:15.952Z,97.40
2018-09-22T06:22:45.334Z,97.20
2018-09-22T06:25:14.157Z,97.10
2018-09-22T06:27:43.358Z,97.20
2018-09-22T06:30:12.257Z,97.20
2018-09-22T06:32:41.129Z,97.40
2018-09-22T06:35:09.992Z,97.20
2018-09-22T06:37:39.624Z,97.10
2018-09-22T06:40:08.595Z,96.90
2018-09-22T06:42:37.675Z,96.80
2018-09-22T06:45:07.087Z,96.80
2018-09-22T06:47:36.049Z,97.00
2018-09-22T06:50:05.011Z,96.80
2018-09-22T06:52:33.914Z,96.70
2018-09-22T06:55:02.902Z,96.80
2018-09-22T06:57:32.305Z,96.80
2018-09-22T07:00:01.440Z,96.70
2018-09-22T07:02:30.421Z,96.70
2018-09-22T07:04:59.231Z,96.40
2018-09-22T07:07:28.465Z,96.30
2018-09-22T07:09:57.270Z,96.20
2018-09-22T07:12:27.361Z,95.50
2018-09-22T07:14:56.746Z,95.50
2018-09-22T07:17:25.873Z,95.70
2018-09-22T07:19:55.263Z,95.70
2018-09-22T07:22:29.429Z,95.20
2018-09-22T07:24:58.217Z,95.00
2018-09-22T07:27:27.537Z,94.70
2018-09-22T07:29:56.928Z,94.20
2018-09-22T07:32:25.914Z,94.30
2018-09-22T07:34:55.501Z,94.20
2018-09-22T07:37:24.286Z,94.60
2018-09-22T07:39:54.024Z,94.00
2018-09-22T07:42:23.189Z,94.10
2018-09-22T07:44:52.310Z,93.60
2018-09-22T07:47:21.258Z,93.50
2018-09-22T07:49:50.517Z,93.30
2018-09-22T07:52:19.641Z,93.70
2018-09-22T07:54:49.412Z,93.60
2018-09-22T07:57:18.542Z,93.20
2018-09-22T07:59:47.469Z,93.00
2018-09-22T08:02:16.218Z,92.10
2018-09-22T08:04:45.206Z,92.40
2018-09-22T08:07:14.221Z,92.10
2018-09-22T08:09:43.444Z,91.40
2018-09-22T08:12:12.857Z,91.60
2018-09-22T08:14:42.170Z,90.80
2018-09-22T08:17:11.547Z,90.70
2018-09-22T08:19:40.649Z,90.20
2018-09-22T08:22:09.501Z,88.90
2018-09-22T08:24:38.730Z,86.20
2018-09-22T08:27:07.860Z,84.70
2018-09-22T08:29:36.892Z,82.00
2018-09-22T08:32:06.539Z,82.60
2018-09-22T08:34:35.811Z,82.50
2018-09-22T08:37:05.285Z,81.70
2018-09-22T08:39:34.144Z,79.40
2018-09-22T08:42:03.628Z,79.00
2018-09-22T08:44:32.661Z,76.20
2018-09-22T08:47:02.127Z,76.00
2018-09-22T08:49:31.420Z,76.80
2018-09-22T08:52:00.474Z,76.50
2018-09-22T08:54:29.859Z,75.60
2018-09-22T08:56:58.965Z,74.90
2018-09-22T08:59:27.998Z,72.90
2018-09-22T09:01:57.088Z,72.80
2018-09-22T09:04:26.419Z,69.10
2018-09-22T09:06:55.320Z,68.00
2018-09-22T09:09:24.077Z,66.00
2018-09-22T09:11:53.256Z,64.10
2018-09-22T09:14:22.622Z,63.00
2018-09-22T09:16:51.594Z,62.10
2018-09-22T09:19:20.549Z,60.10
2018-09-22T09:21:49.389Z,57.80
2018-09-22T09:24:18.582Z,55.00
2018-09-22T09:26:47.878Z,52.90
2018-09-22T09:29:17.095Z,54.50
2018-09-22T09:31:46.220Z,54.50
2018-09-22T09:34:15.276Z,53.10
2018-09-22T09:36:44.533Z,53.60
2018-09-22T09:39:13.815Z,54.70
2018-09-22T09:41:43.059Z,51.50
2018-09-22T09:44:12.171Z,50.20
2018-09-22T09:46:41.204Z,49.60
2018-09-22T09:49:10.068Z,51.40
2018-09-22T09:51:39.001Z,49.70
2018-09-22T09:54:08.249Z,50.00
2018-09-22T09:56:37.161Z,50.30
2018-09-22T09:59:06.188Z,51.40
2018-09-22T10:01:35.177Z,51.90
2018-09-22T10:04:04.070Z,51.60
2018-09-22T10:06:33.009Z,50.80
2018-09-22T10:09:02.299Z,48.60
2018-09-22T10:11:31.366Z,48.90
2018-09-22T10:14:00.119Z,44.50
2018-09-22T10:16:29.329Z,40.90
2018-09-22T10:18:58.457Z,42.10
2018-09-22T10:21:27.256Z,42.00
2018-09-22T10:23:56.094Z,40.40
2018-09-22T10:26:25.350Z,40.20
2018-09-22T10:28:54.436Z,38.80
2018-09-22T10:31:23.968Z,39.60
2018-09-22T10:33:52.875Z,35.80
2018-09-22T10:36:21.762Z,29.70
2018-09-22T10:38:50.548Z,26.50
2018-09-22T10:41:19.272Z,25.10
2018-09-22T10:43:48.664Z,26.60
2018-09-22T10:46:17.568Z,26.10
2018-09-22T10:48:46.612Z,24.90
2018-09-22T10:51:15.497Z,23.70
2018-09-22T10:53:44.318Z,25.00
2018-09-22T10:56:13.149Z,24.70
2018-09-22T10:58:41.850Z,26.80
2018-09-22T11:01:10.694Z,25.60
2018-09-22T11:03:39.717Z,24.80
2018-09-22T11:06:08.715Z,24.50
2018-09-22T11:08:37.526Z,24.40
2018-09-22T11:11:06.561Z,23.60
2018-09-22T11:13:35.487Z,22.40
2018-09-22T11:16:04.580Z,20.60
2018-09-22T11:18:33.479Z,20.70
2018-09-22T11:21:02.289Z,22.20
2018-09-22T11:23:31.317Z,26.20
2018-09-22T11:26:00.261Z,28.70
2018-09-22T11:28:28.996Z,27.30
2018-09-22T11:30:57.785Z,25.60
2018-09-22T11:33:26.510Z,25.10
2018-09-22T11:35:55.515Z,28.60
2018-09-22T11:38:24.376Z,30.80
2018-09-22T11:40:53.300Z,31.90
2018-09-22T11:43:22.278Z,34.10
2018-09-22T11:45:51.144Z,32.90
2018-09-22T11:48:20.117Z,34.70
2018-09-22T11:50:48.971Z,35.30
2018-09-22T11:53:17.850Z,37.00
2018-09-22T11:55:46.945Z,38.10
2018-09-22T11:58:15.830Z,37.50
2018-09-22T12:00:44.730Z,37.90
2018-09-22T12:03:13.631Z,38.10
2018-09-22T12:05:42.471Z,36.90
2018-09-22T12:08:11.656Z,37.30
2018-09-22T12:10:41.060Z,38.00
2018-09-22T12:13:09.833Z,38.00
2018-09-22T12:15:38.549Z,38.10
2018-09-22T12:18:07.357Z,38.20
2018-09-22T12:20:36.502Z,38.50
2018-09-22T12:23:05.527Z,38.40
2018-09-22T12:25:34.445Z,38.10
2018-09-22T12:28:03.309Z,37.10
2018-09-22T12:30:32.189Z,37.00
2018-09-22T12:33:00.879Z,38.20
2018-09-22T12:35:29.720Z,38.40
2018-09-22T12:37:58.747Z,38.40
2018-09-22T12:40:27.761Z,37.30
2018-09-22T12:42:56.743Z,37.40
2018-09-22T12:45:25.846Z,37.00
2018-09-22T12:47:54.658Z,37.30
2018-09-22T12:50:23.895Z,37.40
2018-09-22T12:52:52.732Z,37.80
2018-09-22T12:55:21.856Z,37.80
2018-09-22T12:57:50.695Z,36.80
2018-09-22T13:00:19.523Z,37.10
2018-09-22T13:02:48.720Z,37.70
2018-09-22T13:05:17.506Z,37.30
2018-09-22T13:07:46.401Z,38.00
2018-09-22T13:10:15.357Z,37.40
2018-09-22T13:12:44.239Z,36.00
2018-09-22T13:15:13.250Z,35.90
2018-09-22T13:17:42.197Z,36.60
2018-09-22T13:20:11.163Z,37.40
2018-09-22T13:22:40.469Z,36.40
2018-09-22T13:25:09.430Z,36.40
2018-09-22T13:27:38.451Z,36.40
2018-09-22T13:30:07.241Z,37.20
2018-09-22T13:32:36.046Z,36.30
2018-09-22T13:35:05.375Z,35.80
2018-09-22T13:37:34.292Z,37.20
2018-09-22T13:40:03.414Z,36.70
2018-09-22T13:42:32.334Z,36.20
2018-09-22T13:45:01.083Z,36.40
2018-09-22T13:47:29.882Z,36.80
2018-09-22T13:49:58.826Z,37.60
2018-09-22T13:52:27.529Z,36.20
2018-09-22T13:54:56.534Z,35.10
2018-09-22T13:57:25.453Z,36.00
2018-09-22T13:59:54.537Z,36.60
2018-09-22T14:02:23.603Z,36.60
2018-09-22T14:04:52.346Z,37.20
2018-09-22T14:07:21.262Z,38.00
2018-09-22T14:09:49.980Z,39.10
2018-09-22T14:12:18.986Z,39.60
2018-09-22T14:14:47.857Z,38.00
2018-09-22T14:17:16.982Z,37.50
2018-09-22T14:19:45.884Z,38.30
2018-09-22T14:22:14.857Z,38.00
2018-09-22T14:24:43.879Z,38.60
2018-09-22T14:27:13.353Z,38.30
2018-09-22T14:29:42.119Z,36.70
2018-09-22T14:32:11.136Z,37.70
2018-09-22T14:34:40.146Z,37.40
2018-09-22T14:37:09.781Z,37.90
2018-09-22T14:39:38.521Z,38.00
2018-09-22T14:42:07.402Z,38.60
2018-09-22T14:44:36.479Z,38.00
2018-09-22T14:47:05.490Z,38.50
2018-09-22T14:49:34.820Z,38.20
2018-09-22T14:52:03.864Z,38.70
2018-09-22T14:54:32.965Z,38.90
2018-09-22T14:57:01.777Z,38.90
2018-09-22T14:59:31.001Z,38.70
2018-09-22T15:01:59.826Z,39.10
2018-09-22T15:04:28.790Z,39.50
2018-09-22T15:06:58.096Z,38.90
2018-09-22T15:09:27.030Z,39.40
2018-09-22T15:11:56.059Z,40.20
2018-09-22T15:14:25.566Z,39.80
2018-09-22T15:16:54.322Z,39.90
2018-09-22T15:19:23.274Z,40.70
2018-09-22T15:21:52.096Z,41.20
2018-09-22T15:24:21.994Z,41.20
2018-09-22T15:26:50.785Z,39.10
2018-09-22T15:29:19.831Z,39.40
2018-09-22T15:31:48.859Z,39.70
2018-09-22T15:34:17.932Z,40.40
2018-09-22T15:36:47.068Z,40.90
2018-09-22T15:39:16.032Z,41.20
2018-09-22T15:41:44.873Z,41.40
2018-09-22T15:44:13.835Z,41.30
2018-09-22T15:46:42.676Z,41.30
2018-09-22T15:49:11.628Z,41.70
2018-09-22T15:51:40.584Z,41.90
2018-09-22T15:54:09.976Z,42.00
2018-09-22T15:56:39.323Z,41.90
2018-09-22T15:59:08.303Z,42.10
2018-09-22T16:01:37.304Z,42.10
2018-09-22T16:04:06.148Z,41.80
2018-09-22T16:06:35.423Z,42.20
2018-09-22T16:09:05.509Z,42.20
2018-09-22T16:11:34.537Z,41.90
2018-09-22T16:14:03.741Z,42.50
2018-09-22T16:16:32.708Z,42.40
2018-09-22T16:19:01.939Z,41.90
2018-09-22T16:21:31.228Z,42.30
2018-09-22T16:24:00.736Z,42.50
2018-09-22T16:26:29.823Z,42.40
2018-09-22T16:28:59.086Z,42.70
2018-09-22T16:31:27.868Z,43.20
2018-09-22T16:33:56.741Z,43.50
2018-09-22T16:36:26.009Z,43.70
2018-09-22T16:38:54.798Z,43.90
2018-09-22T16:41:23.639Z,44.20
2018-09-22T16:43:52.438Z,44.80
2018-09-22T16:46:21.239Z,44.30
2018-09-22T16:48:50.591Z,44.40
2018-09-22T16:51:19.384Z,44.60
2018-09-22T16:53:48.310Z,44.70
2018-09-22T16:56:17.578Z,45.20
2018-09-22T16:58:46.567Z,45.40
2018-09-22T17:01:15.374Z,45.70
2018-09-22T17:03:44.245Z,45.80
2018-09-22T17:06:13.010Z,46.10
2018-09-22T17:08:41.830Z,46.50
2018-09-22T17:11:11.028Z,47.00
2018-09-22T17:13:39.914Z,46.90
2018-09-22T17:16:09.185Z,47.30
2018-09-22T17:18:38.166Z,47.50
2018-09-22T17:21:07.251Z,47.50
2018-09-22T17:23:36.534Z,47.90
2018-09-22T17:26:05.821Z,47.80
2018-09-22T17:28:35.169Z,48.00
2018-09-22T17:31:04.332Z,48.20
2018-09-22T17:33:33.265Z,48.90
2018-09-22T17:36:01.997Z,48.90
2018-09-22T17:38:31.546Z,48.90
2018-09-22T17:41:00.468Z,49.10
2018-09-22T17:43:29.654Z,49.30
2018-09-22T17:45:58.602Z,49.50
2018-09-22T17:48:27.593Z,49.70
2018-09-22T17:50:56.773Z,49.80
2018-09-22T17:53:26.000Z,50.50
2018-09-22T17:55:55.058Z,50.30
2018-09-22T17:58:24.239Z,50.80
2018-09-22T18:00:53.363Z,51.90
2018-09-22T18:03:22.506Z,54.40
2018-09-22T18:05:51.662Z,54.70
2018-09-22T18:08:20.583Z,57.20
2018-09-22T18:10:49.513Z,56.60
2018-09-22T18:13:18.268Z,57.60
2018-09-22T18:15:47.270Z,58.90
2018-09-22T18:18:16.157Z,60.70
2018-09-22T18:20:45.280Z,60.80
2018-09-22T18:23:14.422Z,62.50
2018-09-22T18:25:43.577Z,65.20
2018-09-22T18:28:12.568Z,63.00
2018-09-22T18:30:41.354Z,65.20
2018-09-22T18:33:10.381Z,65.10
2018-09-22T18:35:39.615Z,67.60
2018-09-22T18:38:08.689Z,68.20
2018-09-22T18:40:37.634Z,70.40
2018-09-22T18:43:06.567Z,69.70
2018-09-22T18:45:35.613Z,69.40
2018-09-22T18:48:04.493Z,69.90
2018-09-22T18:50:33.522Z,72.80
2018-09-22T18:53:02.743Z,69.80
2018-09-22T18:55:32.333Z,68.70
2018-09-22T18:58:01.350Z,71.20
2018-09-22T19:00:35.088Z,73.70
2018-09-22T19:03:04.116Z,73.10
2018-09-22T19:05:33.390Z,73.10
2018-09-22T19:08:02.471Z,74.60
2018-09-22T19:10:31.473Z,72.80
2018-09-22T19:13:01.528Z,73.30
2018-09-22T19:15:38.708Z,72.00
2018-09-22T19:18:14.978Z,74.00
2018-09-22T19:20:50.417Z,74.30
2018-09-22T19:23:25.155Z,76.20
2018-09-22T19:25:58.102Z,76.60
2018-09-22T19:28:34.549Z,78.70
2018-09-22T19:31:07.837Z,81.70
2018-09-22T19:33:40.761Z,82.50
2018-09-22T19:36:16.078Z,85.90
2018-09-22T19:38:53.867Z,84.70
2018-09-22T19:42:26.692Z,83.50
2018-09-22T19:45:01.217Z,82.50
2018-09-22T19:47:34.874Z,82.80
2018-09-22T19:50:06.521Z,82.40
2018-09-22T19:52:43.679Z,82.90
2018-09-22T19:55:12.687Z,80.90
2018-09-22T19:57:41.589Z,82.30
2018-09-22T20:00:11.455Z,81.40
2018-09-22T20:02:48.545Z,81.40
2018-09-22T20:05:20.457Z,84.00
2018-09-22T20:07:49.638Z,88.60
2018-09-22T20:10:18.965Z,91.10
2018-09-22T20:12:48.406Z,94.10
2018-09-22T20:15:17.826Z,97.00
2018-09-22T20:17:46.811Z,98.90
2018-09-22T20:20:16.154Z,99.90
2018-09-22T20:22:45.602Z,99.90
2018-09-22T20:25:14.760Z,99.90
2018-09-22T20:27:43.801Z,99.90
2018-09-22T20:30:13.073Z,99.90
2018-09-22T20:32:42.357Z,99.90
2018-09-22T20:35:11.322Z,99.90
2018-09-22T20:37:40.648Z,99.90
2018-09-22T20:40:09.726Z,99.90
2018-09-22T20:42:38.715Z,99.90
2018-09-22T20:45:07.790Z,99.90
2018-09-22T20:47:36.823Z,99.90
2018-09-22T20:50:05.868Z,99.90
2018-09-22T20:52:34.839Z,99.90
2018-09-22T20:55:03.835Z,99.90
2018-09-22T20:57:33.124Z,99.90
2018-09-22T21:00:02.366Z,99.90
2018-09-22T21:02:31.603Z,99.90
2018-09-22T21:05:00.765Z,99.90
2018-09-22T21:07:30.005Z,99.90
2018-09-22T21:09:59.380Z,99.90
2018-09-22T21:12:28.671Z,99.90
2018-09-22T21:14:57.673Z,99.90
2018-09-22T21:17:26.786Z,99.90
2018-09-22T21:19:55.825Z,99.90
2018-09-22T21:22:28.952Z,99.90
2018-09-22T21:24:57.819Z,99.90
2018-09-22T21:27:27.117Z,99.90
2018-09-22T21:29:56.404Z,99.90
2018-09-22T21:32:25.489Z,99.90
2018-09-22T21:34:54.546Z,99.90
2018-09-22T21:37:23.815Z,99.90
2018-09-22T21:39:53.024Z,99.90
2018-09-22T21:42:22.378Z,99.90
2018-09-22T21:44:52.181Z,99.90
2018-09-22T21:47:21.665Z,99.90
2018-09-22T21:49:50.659Z,99.90
2018-09-22T21:52:19.622Z,99.90
2018-09-22T21:54:48.838Z,99.90
2018-09-22T21:57:18.040Z,99.90
2018-09-22T21:59:47.109Z,99.90
2018-09-22T22:02:16.167Z,99.90
2018-09-22T22:04:45.189Z,99.90
2018-09-22T22:07:14.266Z,99.90
2018-09-22T22:09:43.504Z,99.90
2018-09-22T22:12:13.033Z,99.90
2018-09-22T22:14:42.253Z,99.90
2018-09-22T22:17:11.385Z,99.90
2018-09-22T22:19:40.572Z,99.90
2018-09-22T22:22:09.462Z,99.90
2018-09-22T22:24:38.639Z,99.90
2018-09-22T22:27:07.819Z,99.90
2018-09-22T22:29:36.613Z,99.90
2018-09-22T22:32:05.595Z,99.90
2018-09-22T22:34:34.527Z,99.90
2018-09-22T22:37:03.622Z,99.90
2018-09-22T22:39:32.769Z,99.90
2018-09-22T22:42:01.573Z,99.90
2018-09-22T22:44:30.518Z,99.90
2018-09-22T22:46:59.669Z,99.90
2018-09-22T22:49:28.859Z,99.90
2018-09-22T22:51:58.233Z,99.90
2018-09-22T22:54:27.322Z,99.90
2018-09-22T22:56:56.587Z,99.90
2018-09-22T22:59:25.806Z,99.90
2018-09-22T23:01:55.135Z,99.90
2018-09-22T23:04:24.437Z,99.90
2018-09-22T23:06:53.597Z,99.90
2018-09-22T23:09:22.669Z,99.90
2018-09-22T23:11:51.738Z,99.90
2018-09-22T23:14:20.979Z,99.90
2018-09-22T23:16:49.821Z,99.90
2018-09-22T23:19:19.171Z,99.90
2018-09-22T23:21:48.410Z,99.90
2018-09-22T23:24:17.490Z,99.90
2018-09-22T23:26:46.713Z,99.90
2018-09-22T23:29:15.933Z,99.90
2018-09-22T23:31:45.073Z,99.90
2018-09-22T23:34:14.233Z,99.90
2018-09-22T23:36:43.462Z,99.90
2018-09-22T23:39:12.960Z,99.90
2018-09-22T23:41:42.894Z,99.90
2018-09-22T23:44:12.364Z,99.90
2018-09-22T23:46:41.268Z,99.90
2018-09-22T23:49:10.464Z,99.90
2018-09-22T23:51:39.541Z,99.90
2018-09-22T23:54:08.611Z,99.90
2018-09-22T23:56:37.981Z,99.90
2018-09-22T23:59:07.404Z,99.90
